sensor_id;sensor_type;location;lat;lon;timestamp;P1;durP1;ratioP1;P2;durP2;ratioP2
20454;SDS011;10386;54.314;10.022;2023-03-25T00:02:22;5.73;;;2.70;;
20454;SDS011;10386;54.314;10.022;2023-03-25T00:04:50;9.47;;;3.13;;
20454;SDS011;10386;54.314;10.022;2023-03-25T00:07:18;6.43;;;2.67;;
20454;SDS011;10386;54.314;10.022;2023-03-25T00:09:46;8.35;;;3.05;;
20454;SDS011;10386;54.314;10.022;2023-03-25T00:12:14;8.47;;;3.40;;
20454;SDS011;10386;54.314;10.022;2023-03-25T00:14:44;5.40;;;3.20;;
20454;SDS011;10386;54.314;10.022;2023-03-25T00:17:20;8.13;;;2.83;;
20454;SDS011;10386;54.314;10.022;2023-03-25T00:19:48;8.00;;;3.30;;
20454;SDS011;10386;54.314;10.022;2023-03-25T00:22:18;4.67;;;2.57;;
20454;SDS011;10386;54.314;10.022;2023-03-25T00:24:46;7.97;;;2.90;;
20454;SDS011;10386;54.314;10.022;2023-03-25T00:27:13;11.00;;;3.13;;
20454;SDS011;10386;54.314;10.022;2023-03-25T00:29:45;4.00;;;2.97;;
20454;SDS011;10386;54.314;10.022;2023-03-25T00:32:12;6.30;;;2.87;;
20454;SDS011;10386;54.314;10.022;2023-03-25T00:34:40;7.37;;;3.33;;
20454;SDS011;10386;54.314;10.022;2023-03-25T00:37:13;12.17;;;3.37;;
20454;SDS011;10386;54.314;10.022;2023-03-25T00:39:47;5.60;;;2.77;;
20454;SDS011;10386;54.314;10.022;2023-03-25T00:42:14;7.00;;;2.87;;
20454;SDS011;10386;54.314;10.022;2023-03-25T00:44:42;5.07;;;2.63;;
20454;SDS011;10386;54.314;10.022;2023-03-25T00:47:09;7.70;;;2.73;;
20454;SDS011;10386;54.314;10.022;2023-03-25T00:49:37;7.47;;;3.20;;
20454;SDS011;10386;54.314;10.022;2023-03-25T00:52:04;10.77;;;3.00;;
20454;SDS011;10386;54.314;10.022;2023-03-25T00:54:30;7.10;;;2.93;;
20454;SDS011;10386;54.314;10.022;2023-03-25T00:56:59;10.10;;;3.63;;
20454;SDS011;10386;54.314;10.022;2023-03-25T00:59:26;7.37;;;2.80;;
20454;SDS011;10386;54.314;10.022;2023-03-25T01:01:53;12.90;;;3.00;;
20454;SDS011;10386;54.314;10.022;2023-03-25T01:04:21;5.33;;;2.70;;
20454;SDS011;10386;54.314;10.022;2023-03-25T01:06:48;9.33;;;3.30;;
20454;SDS011;10386;54.314;10.022;2023-03-25T01:09:18;4.73;;;2.80;;
20454;SDS011;10386;54.314;10.022;2023-03-25T01:11:45;5.37;;;3.07;;
20454;SDS011;10386;54.314;10.022;2023-03-25T01:14:15;4.77;;;2.90;;
20454;SDS011;10386;54.314;10.022;2023-03-25T01:16:44;10.20;;;3.10;;
20454;SDS011;10386;54.314;10.022;2023-03-25T01:19:12;6.43;;;3.37;;
20454;SDS011;10386;54.314;10.022;2023-03-25T01:21:39;10.27;;;3.63;;
20454;SDS011;10386;54.314;10.022;2023-03-25T01:24:07;7.90;;;3.40;;
20454;SDS011;10386;54.314;10.022;2023-03-25T01:26:37;7.67;;;3.20;;
20454;SDS011;10386;54.314;10.022;2023-03-25T01:29:06;11.57;;;3.40;;
20454;SDS011;10386;54.314;10.022;2023-03-25T01:31:33;9.53;;;3.73;;
20454;SDS011;10386;54.314;10.022;2023-03-25T01:34:00;8.17;;;4.13;;
20454;SDS011;10386;54.314;10.022;2023-03-25T01:36:27;10.23;;;3.80;;
20454;SDS011;10386;54.314;10.022;2023-03-25T01:38:57;8.93;;;3.90;;
20454;SDS011;10386;54.314;10.022;2023-03-25T01:41:25;7.70;;;3.83;;
20454;SDS011;10386;54.314;10.022;2023-03-25T01:46:43;10.53;;;4.70;;
20454;SDS011;10386;54.314;10.022;2023-03-25T01:49:16;6.77;;;3.50;;
20454;SDS011;10386;54.314;10.022;2023-03-25T01:51:46;11.00;;;3.73;;
20454;SDS011;10386;54.314;10.022;2023-03-25T01:54:18;9.77;;;4.00;;
20454;SDS011;10386;54.314;10.022;2023-03-25T01:56:46;6.50;;;3.60;;
20454;SDS011;10386;54.314;10.022;2023-03-25T01:59:15;16.37;;;4.67;;
20454;SDS011;10386;54.314;10.022;2023-03-25T02:01:45;10.17;;;4.23;;
20454;SDS011;10386;54.314;10.022;2023-03-25T02:04:12;9.60;;;4.63;;
20454;SDS011;10386;54.314;10.022;2023-03-25T02:06:42;9.30;;;4.30;;
20454;SDS011;10386;54.314;10.022;2023-03-25T02:09:14;11.00;;;4.27;;
20454;SDS011;10386;54.314;10.022;2023-03-25T02:11:43;8.97;;;4.67;;
20454;SDS011;10386;54.314;10.022;2023-03-25T02:14:11;12.57;;;4.20;;
20454;SDS011;10386;54.314;10.022;2023-03-25T02:24:35;11.97;;;4.57;;
20454;SDS011;10386;54.314;10.022;2023-03-25T02:44:10;11.90;;;4.90;;
20454;SDS011;10386;54.314;10.022;2023-03-25T02:46:44;9.90;;;4.77;;
20454;SDS011;10386;54.314;10.022;2023-03-25T02:49:19;15.47;;;5.80;;
20454;SDS011;10386;54.314;10.022;2023-03-25T02:51:55;10.17;;;5.53;;
20454;SDS011;10386;54.314;10.022;2023-03-25T02:54:30;13.13;;;5.17;;
20454;SDS011;10386;54.314;10.022;2023-03-25T02:56:59;11.03;;;5.47;;
20454;SDS011;10386;54.314;10.022;2023-03-25T02:59:27;14.43;;;5.63;;
20454;SDS011;10386;54.314;10.022;2023-03-25T03:01:59;15.47;;;5.90;;
20454;SDS011;10386;54.314;10.022;2023-03-25T03:04:44;13.60;;;4.97;;
20454;SDS011;10386;54.314;10.022;2023-03-25T03:07:14;15.77;;;6.07;;
20454;SDS011;10386;54.314;10.022;2023-03-25T03:15:48;11.70;;;5.60;;
20454;SDS011;10386;54.314;10.022;2023-03-25T03:18:25;13.90;;;5.83;;
20454;SDS011;10386;54.314;10.022;2023-03-25T03:23:34;15.47;;;5.77;;
20454;SDS011;10386;54.314;10.022;2023-03-25T03:29:29;14.67;;;6.33;;
20454;SDS011;10386;54.314;10.022;2023-03-25T03:32:05;13.47;;;5.63;;
20454;SDS011;10386;54.314;10.022;2023-03-25T03:34:47;14.27;;;5.50;;
20454;SDS011;10386;54.314;10.022;2023-03-25T03:37:20;12.57;;;4.77;;
20454;SDS011;10386;54.314;10.022;2023-03-25T03:40:02;11.77;;;5.60;;
20454;SDS011;10386;54.314;10.022;2023-03-25T03:42:39;12.60;;;5.27;;
20454;SDS011;10386;54.314;10.022;2023-03-25T03:45:21;17.27;;;6.00;;
20454;SDS011;10386;54.314;10.022;2023-03-25T03:47:50;7.57;;;5.10;;
20454;SDS011;10386;54.314;10.022;2023-03-25T03:50:24;14.77;;;5.73;;
20454;SDS011;10386;54.314;10.022;2023-03-25T03:52:58;9.17;;;4.20;;
20454;SDS011;10386;54.314;10.022;2023-03-25T03:55:50;12.40;;;4.13;;
20454;SDS011;10386;54.314;10.022;2023-03-25T03:58:24;10.00;;;4.00;;
20454;SDS011;10386;54.314;10.022;2023-03-25T04:03:30;9.40;;;3.83;;
20454;SDS011;10386;54.314;10.022;2023-03-25T04:06:47;10.23;;;4.20;;
20454;SDS011;10386;54.314;10.022;2023-03-25T04:11:38;8.40;;;3.87;;
20454;SDS011;10386;54.314;10.022;2023-03-25T04:14:09;5.73;;;3.80;;
20454;SDS011;10386;54.314;10.022;2023-03-25T04:16:37;10.07;;;4.57;;
20454;SDS011;10386;54.314;10.022;2023-03-25T04:19:04;11.60;;;4.40;;
20454;SDS011;10386;54.314;10.022;2023-03-25T04:21:34;8.43;;;4.27;;
20454;SDS011;10386;54.314;10.022;2023-03-25T04:24:01;16.47;;;4.73;;
20454;SDS011;10386;54.314;10.022;2023-03-25T04:26:28;13.23;;;4.80;;
20454;SDS011;10386;54.314;10.022;2023-03-25T04:29:00;10.40;;;4.50;;
20454;SDS011;10386;54.314;10.022;2023-03-25T04:31:27;10.87;;;4.73;;
20454;SDS011;10386;54.314;10.022;2023-03-25T04:33:57;12.43;;;4.63;;
20454;SDS011;10386;54.314;10.022;2023-03-25T04:36:24;10.20;;;4.43;;
20454;SDS011;10386;54.314;10.022;2023-03-25T04:38:54;14.27;;;4.90;;
20454;SDS011;10386;54.314;10.022;2023-03-25T04:41:21;8.07;;;3.20;;
20454;SDS011;10386;54.314;10.022;2023-03-25T04:43:48;4.47;;;2.40;;
20454;SDS011;10386;54.314;10.022;2023-03-25T04:46:17;5.63;;;2.80;;
20454;SDS011;10386;54.314;10.022;2023-03-25T04:48:44;6.83;;;2.83;;
20454;SDS011;10386;54.314;10.022;2023-03-25T04:51:13;5.10;;;2.23;;
20454;SDS011;10386;54.314;10.022;2023-03-25T04:53:41;6.17;;;2.50;;
20454;SDS011;10386;54.314;10.022;2023-03-25T04:56:11;3.13;;;2.30;;
20454;SDS011;10386;54.314;10.022;2023-03-25T04:58:41;7.47;;;2.23;;
20454;SDS011;10386;54.314;10.022;2023-03-25T05:01:19;7.77;;;2.37;;
20454;SDS011;10386;54.314;10.022;2023-03-25T05:03:47;4.20;;;2.33;;
20454;SDS011;10386;54.314;10.022;2023-03-25T05:06:16;7.03;;;3.17;;
20454;SDS011;10386;54.314;10.022;2023-03-25T05:08:43;4.20;;;2.63;;
20454;SDS011;10386;54.314;10.022;2023-03-25T05:11:10;4.87;;;2.50;;
20454;SDS011;10386;54.314;10.022;2023-03-25T05:13:36;7.30;;;3.43;;
20454;SDS011;10386;54.314;10.022;2023-03-25T05:16:03;8.10;;;3.17;;
20454;SDS011;10386;54.314;10.022;2023-03-25T05:18:30;10.63;;;3.17;;
20454;SDS011;10386;54.314;10.022;2023-03-25T05:20:57;6.77;;;3.10;;
20454;SDS011;10386;54.314;10.022;2023-03-25T05:23:26;5.73;;;3.33;;
20454;SDS011;10386;54.314;10.022;2023-03-25T05:25:52;4.33;;;2.60;;
20454;SDS011;10386;54.314;10.022;2023-03-25T05:28:19;8.60;;;3.17;;
20454;SDS011;10386;54.314;10.022;2023-03-25T05:30:46;10.87;;;3.30;;
20454;SDS011;10386;54.314;10.022;2023-03-25T05:33:14;8.77;;;3.70;;
20454;SDS011;10386;54.314;10.022;2023-03-25T05:35:42;8.67;;;3.80;;
20454;SDS011;10386;54.314;10.022;2023-03-25T05:38:10;10.47;;;3.97;;
20454;SDS011;10386;54.314;10.022;2023-03-25T05:40:38;10.53;;;4.50;;
20454;SDS011;10386;54.314;10.022;2023-03-25T05:43:05;10.83;;;4.40;;
20454;SDS011;10386;54.314;10.022;2023-03-25T05:45:33;11.50;;;4.67;;
20454;SDS011;10386;54.314;10.022;2023-03-25T05:48:03;11.97;;;4.70;;
20454;SDS011;10386;54.314;10.022;2023-03-25T05:50:30;9.00;;;4.53;;
20454;SDS011;10386;54.314;10.022;2023-03-25T05:52:57;10.30;;;4.53;;
20454;SDS011;10386;54.314;10.022;2023-03-25T05:55:25;12.27;;;5.00;;
20454;SDS011;10386;54.314;10.022;2023-03-25T05:57:53;15.23;;;5.07;;
20454;SDS011;10386;54.314;10.022;2023-03-25T06:00:19;8.47;;;4.83;;
20454;SDS011;10386;54.314;10.022;2023-03-25T06:02:49;9.33;;;4.47;;
20454;SDS011;10386;54.314;10.022;2023-03-25T06:05:17;11.53;;;5.10;;
20454;SDS011;10386;54.314;10.022;2023-03-25T06:07:49;13.87;;;5.60;;
20454;SDS011;10386;54.314;10.022;2023-03-25T06:10:16;14.43;;;5.03;;
20454;SDS011;10386;54.314;10.022;2023-03-25T06:12:44;9.17;;;4.90;;
20454;SDS011;10386;54.314;10.022;2023-03-25T06:15:13;13.63;;;4.93;;
20454;SDS011;10386;54.314;10.022;2023-03-25T06:17:43;9.60;;;4.33;;
20454;SDS011;10386;54.314;10.022;2023-03-25T06:20:13;12.07;;;4.67;;
20454;SDS011;10386;54.314;10.022;2023-03-25T06:22:43;8.27;;;3.83;;
20454;SDS011;10386;54.314;10.022;2023-03-25T06:25:12;7.67;;;3.63;;
20454;SDS011;10386;54.314;10.022;2023-03-25T06:27:45;9.47;;;3.63;;
20454;SDS011;10386;54.314;10.022;2023-03-25T06:30:15;13.93;;;3.43;;
20454;SDS011;10386;54.314;10.022;2023-03-25T06:32:44;8.47;;;3.40;;
20454;SDS011;10386;54.314;10.022;2023-03-25T06:35:17;5.30;;;3.10;;
20454;SDS011;10386;54.314;10.022;2023-03-25T06:37:46;7.82;;;3.45;;
20454;SDS011;10386;54.314;10.022;2023-03-25T06:40:14;8.63;;;2.80;;
20454;SDS011;10386;54.314;10.022;2023-03-25T06:42:41;7.07;;;2.63;;
20454;SDS011;10386;54.314;10.022;2023-03-25T06:45:08;6.33;;;2.70;;
20454;SDS011;10386;54.314;10.022;2023-03-25T06:47:35;5.63;;;2.07;;
20454;SDS011;10386;54.314;10.022;2023-03-25T06:50:02;9.07;;;2.53;;
20454;SDS011;10386;54.314;10.022;2023-03-25T06:52:29;5.97;;;2.57;;
20454;SDS011;10386;54.314;10.022;2023-03-25T06:54:56;7.97;;;2.60;;
20454;SDS011;10386;54.314;10.022;2023-03-25T06:57:23;7.83;;;2.43;;
20454;SDS011;10386;54.314;10.022;2023-03-25T06:59:49;7.33;;;2.77;;
20454;SDS011;10386;54.314;10.022;2023-03-25T07:02:16;9.10;;;2.67;;
20454;SDS011;10386;54.314;10.022;2023-03-25T07:04:43;7.80;;;1.97;;
20454;SDS011;10386;54.314;10.022;2023-03-25T07:07:10;13.10;;;2.70;;
20454;SDS011;10386;54.314;10.022;2023-03-25T07:09:37;12.53;;;2.93;;
20454;SDS011;10386;54.314;10.022;2023-03-25T07:12:03;12.93;;;2.97;;
20454;SDS011;10386;54.314;10.022;2023-03-25T07:14:34;8.07;;;2.43;;
20454;SDS011;10386;54.314;10.022;2023-03-25T07:17:01;11.00;;;2.70;;
20454;SDS011;10386;54.314;10.022;2023-03-25T07:19:27;11.57;;;3.73;;
20454;SDS011;10386;54.314;10.022;2023-03-25T07:21:54;13.03;;;2.50;;
20454;SDS011;10386;54.314;10.022;2023-03-25T07:24:21;8.37;;;2.43;;
20454;SDS011;10386;54.314;10.022;2023-03-25T07:26:47;11.63;;;2.87;;
20454;SDS011;10386;54.314;10.022;2023-03-25T07:29:14;16.30;;;3.13;;
20454;SDS011;10386;54.314;10.022;2023-03-25T07:31:41;5.83;;;2.90;;
20454;SDS011;10386;54.314;10.022;2023-03-25T07:34:08;5.27;;;2.50;;
20454;SDS011;10386;54.314;10.022;2023-03-25T07:36:34;7.03;;;2.97;;
20454;SDS011;10386;54.314;10.022;2023-03-25T07:39:01;6.30;;;2.70;;
20454;SDS011;10386;54.314;10.022;2023-03-25T07:41:28;7.93;;;2.63;;
20454;SDS011;10386;54.314;10.022;2023-03-25T07:43:55;8.63;;;2.93;;
20454;SDS011;10386;54.314;10.022;2023-03-25T07:46:22;7.17;;;2.77;;
20454;SDS011;10386;54.314;10.022;2023-03-25T07:48:51;11.67;;;3.03;;
20454;SDS011;10386;54.314;10.022;2023-03-25T07:51:17;8.90;;;3.20;;
20454;SDS011;10386;54.314;10.022;2023-03-25T07:53:44;6.93;;;3.47;;
20454;SDS011;10386;54.314;10.022;2023-03-25T07:56:14;8.10;;;3.13;;
20454;SDS011;10386;54.314;10.022;2023-03-25T07:58:41;6.90;;;2.77;;
20454;SDS011;10386;54.314;10.022;2023-03-25T08:01:12;10.23;;;3.20;;
20454;SDS011;10386;54.314;10.022;2023-03-25T08:03:39;7.93;;;2.90;;
20454;SDS011;10386;54.314;10.022;2023-03-25T08:06:06;8.30;;;2.90;;
20454;SDS011;10386;54.314;10.022;2023-03-25T08:08:33;9.63;;;3.33;;
20454;SDS011;10386;54.314;10.022;2023-03-25T08:11:01;8.63;;;3.20;;
20454;SDS011;10386;54.314;10.022;2023-03-25T08:13:28;9.90;;;3.30;;
20454;SDS011;10386;54.314;10.022;2023-03-25T08:15:55;9.50;;;3.27;;
20454;SDS011;10386;54.314;10.022;2023-03-25T08:18:22;7.07;;;3.10;;
20454;SDS011;10386;54.314;10.022;2023-03-25T08:20:49;12.80;;;2.93;;
20454;SDS011;10386;54.314;10.022;2023-03-25T08:23:16;10.60;;;2.80;;
20454;SDS011;10386;54.314;10.022;2023-03-25T08:25:46;7.90;;;3.37;;
20454;SDS011;10386;54.314;10.022;2023-03-25T08:28:18;8.87;;;2.60;;
20454;SDS011;10386;54.314;10.022;2023-03-25T08:30:50;9.53;;;3.00;;
20454;SDS011;10386;54.314;10.022;2023-03-25T08:33:21;13.37;;;3.87;;
20454;SDS011;10386;54.314;10.022;2023-03-25T08:35:55;10.57;;;2.77;;
20454;SDS011;10386;54.314;10.022;2023-03-25T08:38:22;8.83;;;2.90;;
20454;SDS011;10386;54.314;10.022;2023-03-25T08:40:50;14.20;;;3.47;;
20454;SDS011;10386;54.314;10.022;2023-03-25T08:43:17;13.40;;;3.10;;
20454;SDS011;10386;54.314;10.022;2023-03-25T08:45:44;10.57;;;3.23;;
20454;SDS011;10386;54.314;10.022;2023-03-25T08:48:10;13.90;;;3.23;;
20454;SDS011;10386;54.314;10.022;2023-03-25T08:50:37;8.30;;;3.20;;
20454;SDS011;10386;54.314;10.022;2023-03-25T08:53:04;15.47;;;3.80;;
20454;SDS011;10386;54.314;10.022;2023-03-25T08:55:32;9.40;;;3.50;;
20454;SDS011;10386;54.314;10.022;2023-03-25T08:58:02;11.80;;;3.27;;
20454;SDS011;10386;54.314;10.022;2023-03-25T09:00:31;8.27;;;2.80;;
20454;SDS011;10386;54.314;10.022;2023-03-25T09:02:58;15.10;;;3.23;;
20454;SDS011;10386;54.314;10.022;2023-03-25T09:05:26;8.70;;;3.03;;
20454;SDS011;10386;54.314;10.022;2023-03-25T09:07:53;10.73;;;3.20;;
20454;SDS011;10386;54.314;10.022;2023-03-25T09:10:19;8.03;;;2.53;;
20454;SDS011;10386;54.314;10.022;2023-03-25T09:12:46;7.83;;;2.97;;
20454;SDS011;10386;54.314;10.022;2023-03-25T09:15:13;13.73;;;2.90;;
20454;SDS011;10386;54.314;10.022;2023-03-25T09:17:39;11.30;;;2.67;;
20454;SDS011;10386;54.314;10.022;2023-03-25T09:20:08;11.07;;;3.23;;
20454;SDS011;10386;54.314;10.022;2023-03-25T09:22:37;9.40;;;2.67;;
20454;SDS011;10386;54.314;10.022;2023-03-25T09:25:04;8.30;;;2.73;;
20454;SDS011;10386;54.314;10.022;2023-03-25T09:27:34;9.70;;;2.90;;
20454;SDS011;10386;54.314;10.022;2023-03-25T09:30:02;10.67;;;2.77;;
20454;SDS011;10386;54.314;10.022;2023-03-25T09:32:30;16.17;;;3.40;;
20454;SDS011;10386;54.314;10.022;2023-03-25T09:34:56;12.80;;;3.97;;
20454;SDS011;10386;54.314;10.022;2023-03-25T09:37:26;9.97;;;3.37;;
20454;SDS011;10386;54.314;10.022;2023-03-25T09:39:53;10.90;;;3.57;;
20454;SDS011;10386;54.314;10.022;2023-03-25T09:50:47;13.80;;;2.97;;
20454;SDS011;10386;54.314;10.022;2023-03-25T09:55:56;16.57;;;3.03;;
20454;SDS011;10386;54.314;10.022;2023-03-25T09:58:35;13.23;;;3.47;;
20454;SDS011;10386;54.314;10.022;2023-03-25T10:06:28;5.47;;;2.00;;
20454;SDS011;10386;54.314;10.022;2023-03-25T10:09:07;7.23;;;2.60;;
20454;SDS011;10386;54.314;10.022;2023-03-25T10:14:36;8.27;;;2.20;;
20454;SDS011;10386;54.314;10.022;2023-03-25T10:18:05;3.63;;;1.80;;
20454;SDS011;10386;54.314;10.022;2023-03-25T10:25:56;5.00;;;2.30;;
20454;SDS011;10386;54.314;10.022;2023-03-25T10:28:29;7.40;;;1.93;;
20454;SDS011;10386;54.314;10.022;2023-03-25T10:31:02;8.03;;;2.53;;
20454;SDS011;10386;54.314;10.022;2023-03-25T10:36:02;13.17;;;3.13;;
20454;SDS011;10386;54.314;10.022;2023-03-25T10:38:32;5.27;;;2.30;;
20454;SDS011;10386;54.314;10.022;2023-03-25T10:41:20;8.37;;;3.23;;
20454;SDS011;10386;54.314;10.022;2023-03-25T10:43:51;10.80;;;2.80;;
20454;SDS011;10386;54.314;10.022;2023-03-25T10:48:54;12.60;;;2.83;;
20454;SDS011;10386;54.314;10.022;2023-03-25T10:51:25;12.20;;;3.10;;
20454;SDS011;10386;54.314;10.022;2023-03-25T10:53:57;8.83;;;2.37;;
20454;SDS011;10386;54.314;10.022;2023-03-25T10:56:26;11.57;;;2.60;;
20454;SDS011;10386;54.314;10.022;2023-03-25T10:58:58;8.70;;;2.30;;
20454;SDS011;10386;54.314;10.022;2023-03-25T11:01:36;9.17;;;2.47;;
20454;SDS011;10386;54.314;10.022;2023-03-25T11:04:07;12.63;;;2.10;;
20454;SDS011;10386;54.314;10.022;2023-03-25T11:06:38;6.20;;;2.37;;
20454;SDS011;10386;54.314;10.022;2023-03-25T11:11:39;11.10;;;2.60;;
20454;SDS011;10386;54.314;10.022;2023-03-25T11:14:08;6.10;;;2.17;;
20454;SDS011;10386;54.314;10.022;2023-03-25T11:16:41;9.57;;;2.67;;
20454;SDS011;10386;54.314;10.022;2023-03-25T11:19:17;9.33;;;2.10;;
20454;SDS011;10386;54.314;10.022;2023-03-25T11:21:51;10.00;;;2.43;;
20454;SDS011;10386;54.314;10.022;2023-03-25T11:24:20;8.63;;;2.07;;
20454;SDS011;10386;54.314;10.022;2023-03-25T11:26:54;11.23;;;2.57;;
20454;SDS011;10386;54.314;10.022;2023-03-25T11:29:23;11.40;;;2.53;;
20454;SDS011;10386;54.314;10.022;2023-03-25T11:32:35;9.60;;;2.43;;
20454;SDS011;10386;54.314;10.022;2023-03-25T11:34:45;8.27;;;2.20;;
20454;SDS011;10386;54.314;10.022;2023-03-25T11:39:51;13.67;;;2.17;;
20454;SDS011;10386;54.314;10.022;2023-03-25T11:42:29;13.80;;;2.90;;
20454;SDS011;10386;54.314;10.022;2023-03-25T11:44:59;10.97;;;2.47;;
20454;SDS011;10386;54.314;10.022;2023-03-25T11:47:32;19.53;;;2.87;;
20454;SDS011;10386;54.314;10.022;2023-03-25T11:50:00;14.17;;;3.63;;
20454;SDS011;10386;54.314;10.022;2023-03-25T11:52:38;9.77;;;2.80;;
20454;SDS011;10386;54.314;10.022;2023-03-25T11:55:27;13.37;;;2.70;;
20454;SDS011;10386;54.314;10.022;2023-03-25T11:57:57;17.37;;;3.07;;
20454;SDS011;10386;54.314;10.022;2023-03-25T12:03:00;13.27;;;2.60;;
20454;SDS011;10386;54.314;10.022;2023-03-25T12:05:28;14.17;;;2.93;;
20454;SDS011;10386;54.314;10.022;2023-03-25T12:08:17;7.33;;;2.50;;
20454;SDS011;10386;54.314;10.022;2023-03-25T12:16:24;7.77;;;2.40;;
20454;SDS011;10386;54.314;10.022;2023-03-25T12:19:04;7.73;;;2.50;;
20454;SDS011;10386;54.314;10.022;2023-03-25T12:27:20;8.33;;;2.47;;
20454;SDS011;10386;54.314;10.022;2023-03-25T12:38:41;4.90;;;2.07;;
20454;SDS011;10386;54.314;10.022;2023-03-25T12:49:35;5.17;;;1.80;;
20454;SDS011;10386;54.314;10.022;2023-03-25T12:52:14;4.63;;;1.53;;
20454;SDS011;10386;54.314;10.022;2023-03-25T12:58:00;7.50;;;1.33;;
20454;SDS011;10386;54.314;10.022;2023-03-25T13:03:29;2.97;;;1.20;;
20454;SDS011;10386;54.314;10.022;2023-03-25T13:08:58;1.07;;;1.07;;
20454;SDS011;10386;54.314;10.022;2023-03-25T13:11:43;4.67;;;1.23;;
20454;SDS011;10386;54.314;10.022;2023-03-25T13:14:20;2.90;;;1.13;;
20454;SDS011;10386;54.314;10.022;2023-03-25T13:16:51;2.97;;;1.20;;
20454;SDS011;10386;54.314;10.022;2023-03-25T13:19:23;3.23;;;0.93;;
20454;SDS011;10386;54.314;10.022;2023-03-25T13:21:55;4.20;;;1.30;;
20454;SDS011;10386;54.314;10.022;2023-03-25T13:24:44;6.43;;;1.23;;
20454;SDS011;10386;54.314;10.022;2023-03-25T13:27:14;4.70;;;1.70;;
20454;SDS011;10386;54.314;10.022;2023-03-25T13:29:43;4.93;;;1.70;;
20454;SDS011;10386;54.314;10.022;2023-03-25T13:32:19;5.07;;;1.97;;
20454;SDS011;10386;54.314;10.022;2023-03-25T13:34:55;9.47;;;2.30;;
20454;SDS011;10386;54.314;10.022;2023-03-25T13:40:26;6.90;;;1.60;;
20454;SDS011;10386;54.314;10.022;2023-03-25T13:46:05;7.03;;;2.07;;
20454;SDS011;10386;54.314;10.022;2023-03-25T13:51:12;5.60;;;2.13;;
20454;SDS011;10386;54.314;10.022;2023-03-25T13:56:29;7.27;;;2.23;;
20454;SDS011;10386;54.314;10.022;2023-03-25T14:05:52;9.23;;;2.00;;
20454;SDS011;10386;54.314;10.022;2023-03-25T14:13:57;14.63;;;2.30;;
20454;SDS011;10386;54.314;10.022;2023-03-25T14:16:29;10.83;;;2.27;;
20454;SDS011;10386;54.314;10.022;2023-03-25T14:19:02;13.97;;;2.43;;
20454;SDS011;10386;54.314;10.022;2023-03-25T14:24:27;11.37;;;2.83;;
20454;SDS011;10386;54.314;10.022;2023-03-25T14:27:01;16.40;;;2.97;;
20454;SDS011;10386;54.314;10.022;2023-03-25T14:34:42;11.47;;;2.60;;
20454;SDS011;10386;54.314;10.022;2023-03-25T14:37:13;12.30;;;2.70;;
20454;SDS011;10386;54.314;10.022;2023-03-25T14:39:41;15.33;;;2.57;;
20454;SDS011;10386;54.314;10.022;2023-03-25T14:42:11;17.17;;;2.90;;
20454;SDS011;10386;54.314;10.022;2023-03-25T14:44:52;14.20;;;2.50;;
20454;SDS011;10386;54.314;10.022;2023-03-25T14:47:50;12.17;;;2.50;;
20454;SDS011;10386;54.314;10.022;2023-03-25T14:52:49;8.27;;;2.57;;
20454;SDS011;10386;54.314;10.022;2023-03-25T14:55:18;12.73;;;2.57;;
20454;SDS011;10386;54.314;10.022;2023-03-25T14:57:45;17.07;;;3.33;;
20454;SDS011;10386;54.314;10.022;2023-03-25T15:00:18;12.00;;;2.80;;
20454;SDS011;10386;54.314;10.022;2023-03-25T15:03:13;9.67;;;2.30;;
20454;SDS011;10386;54.314;10.022;2023-03-25T15:05:42;9.77;;;2.70;;
20454;SDS011;10386;54.314;10.022;2023-03-25T15:08:20;10.10;;;2.50;;
20454;SDS011;10386;54.314;10.022;2023-03-25T15:11:03;12.10;;;3.10;;
20454;SDS011;10386;54.314;10.022;2023-03-25T15:13:41;17.23;;;2.57;;
20454;SDS011;10386;54.314;10.022;2023-03-25T15:21:12;13.30;;;2.80;;
20454;SDS011;10386;54.314;10.022;2023-03-25T15:23:43;13.63;;;3.43;;
20454;SDS011;10386;54.314;10.022;2023-03-25T15:26:13;20.67;;;3.53;;
20454;SDS011;10386;54.314;10.022;2023-03-25T15:37:11;10.97;;;2.63;;
20454;SDS011;10386;54.314;10.022;2023-03-25T15:43:06;15.63;;;3.07;;
20454;SDS011;10386;54.314;10.022;2023-03-25T15:54:50;23.07;;;3.17;;
20454;SDS011;10386;54.314;10.022;2023-03-25T16:02:48;8.13;;;2.50;;
20454;SDS011;10386;54.314;10.022;2023-03-25T16:05:18;11.77;;;2.27;;
20454;SDS011;10386;54.314;10.022;2023-03-25T16:07:46;8.63;;;2.30;;
20454;SDS011;10386;54.314;10.022;2023-03-25T16:10:15;12.87;;;3.27;;
20454;SDS011;10386;54.314;10.022;2023-03-25T16:12:45;8.30;;;2.57;;
20454;SDS011;10386;54.314;10.022;2023-03-25T16:15:13;8.60;;;2.73;;
20454;SDS011;10386;54.314;10.022;2023-03-25T16:17:42;8.03;;;2.77;;
20454;SDS011;10386;54.314;10.022;2023-03-25T16:20:14;10.50;;;2.60;;
20454;SDS011;10386;54.314;10.022;2023-03-25T16:22:48;7.83;;;2.40;;
20454;SDS011;10386;54.314;10.022;2023-03-25T16:25:19;11.10;;;2.60;;
20454;SDS011;10386;54.314;10.022;2023-03-25T16:27:53;10.77;;;2.47;;
20454;SDS011;10386;54.314;10.022;2023-03-25T16:30:40;11.10;;;2.40;;
20454;SDS011;10386;54.314;10.022;2023-03-25T16:35:37;13.43;;;2.67;;
20454;SDS011;10386;54.314;10.022;2023-03-25T16:38:07;5.97;;;1.97;;
20454;SDS011;10386;54.314;10.022;2023-03-25T16:40:39;8.57;;;2.23;;
20454;SDS011;10386;54.314;10.022;2023-03-25T16:43:12;13.97;;;2.20;;
20454;SDS011;10386;54.314;10.022;2023-03-25T16:45:44;8.80;;;2.13;;
20454;SDS011;10386;54.314;10.022;2023-03-25T16:48:14;4.77;;;1.70;;
20454;SDS011;10386;54.314;10.022;2023-03-25T16:50:53;5.57;;;1.80;;
20454;SDS011;10386;54.314;10.022;2023-03-25T16:53:22;5.27;;;1.83;;
20454;SDS011;10386;54.314;10.022;2023-03-25T16:56:19;7.50;;;2.07;;
20454;SDS011;10386;54.314;10.022;2023-03-25T16:58:56;1.80;;;1.20;;
20454;SDS011;10386;54.314;10.022;2023-03-25T17:01:42;9.37;;;1.67;;
20454;SDS011;10386;54.314;10.022;2023-03-25T17:04:16;2.10;;;1.17;;
20454;SDS011;10386;54.314;10.022;2023-03-25T17:06:48;3.37;;;1.53;;
20454;SDS011;10386;54.314;10.022;2023-03-25T17:09:19;9.40;;;2.20;;
20454;SDS011;10386;54.314;10.022;2023-03-25T17:11:50;4.80;;;1.10;;
20454;SDS011;10386;54.314;10.022;2023-03-25T17:14:21;3.37;;;1.37;;
20454;SDS011;10386;54.314;10.022;2023-03-25T17:16:52;6.10;;;1.40;;
20454;SDS011;10386;54.314;10.022;2023-03-25T17:19:20;3.63;;;1.40;;
20454;SDS011;10386;54.314;10.022;2023-03-25T17:22:00;3.30;;;1.40;;
20454;SDS011;10386;54.314;10.022;2023-03-25T17:24:35;2.90;;;1.10;;
20454;SDS011;10386;54.314;10.022;2023-03-25T17:27:15;3.43;;;1.43;;
20454;SDS011;10386;54.314;10.022;2023-03-25T17:29:57;11.10;;;1.70;;
20454;SDS011;10386;54.314;10.022;2023-03-25T17:32:25;4.10;;;1.70;;
20454;SDS011;10386;54.314;10.022;2023-03-25T17:34:55;1.63;;;1.50;;
20454;SDS011;10386;54.314;10.022;2023-03-25T17:37:23;2.43;;;1.50;;
20454;SDS011;10386;54.314;10.022;2023-03-25T17:39:51;2.87;;;1.33;;
20454;SDS011;10386;54.314;10.022;2023-03-25T17:42:22;2.77;;;1.57;;
20454;SDS011;10386;54.314;10.022;2023-03-25T17:44:51;4.87;;;1.90;;
20454;SDS011;10386;54.314;10.022;2023-03-25T17:47:19;9.60;;;2.20;;
20454;SDS011;10386;54.314;10.022;2023-03-25T17:49:47;7.03;;;1.80;;
20454;SDS011;10386;54.314;10.022;2023-03-25T17:52:13;8.47;;;1.77;;
20454;SDS011;10386;54.314;10.022;2023-03-25T17:54:40;4.13;;;1.57;;
20454;SDS011;10386;54.314;10.022;2023-03-25T17:57:08;7.07;;;1.97;;
20454;SDS011;10386;54.314;10.022;2023-03-25T17:59:39;7.37;;;2.20;;